createdAt,value
2018-03-03T00:00:55.046Z,95265.73
2018-03-03T00:03:23.408Z,95276.56
2018-03-03T00:05:53.856Z,95274.50
2018-03-03T00:08:22.954Z,95277.34
2018-03-03T00:10:52.139Z,95281.45
2018-03-03T00:13:21.246Z,95288.48
2018-03-03T00:15:49.534Z,95280.64
2018-03-03T00:18:20.593Z,95283.98
2018-03-03T00:20:50.827Z,95285.22
2018-03-03T00:23:19.977Z,95287.28
2018-03-03T00:25:49.954Z,95290.62
2018-03-03T00:28:18.364Z,95291.47
2018-03-03T00:30:46.737Z,95295.23
2018-03-03T00:33:17.707Z,95291.09
2018-03-03T00:35:46.908Z,95294.00
2018-03-03T00:38:15.290Z,95293.10
2018-03-03T00:40:43.670Z,95289.77
2018-03-03T00:43:11.987Z,95290.58
2018-03-03T00:45:40.366Z,95293.49
2018-03-03T00:48:10.312Z,95302.58
2018-03-03T00:50:41.297Z,95297.17
2018-03-03T00:53:11.569Z,95304.75
2018-03-03T00:55:42.307Z,95303.86
2018-03-03T00:58:10.629Z,95305.45
2018-03-03T01:00:39.686Z,95300.44
2018-03-03T01:03:10.569Z,95305.83
2018-03-03T01:05:38.921Z,95295.82
2018-03-03T01:08:07.328Z,95295.42
2018-03-03T01:10:35.635Z,95299.08
2018-03-03T01:13:04.031Z,95304.00
2018-03-03T01:15:32.516Z,95297.41
2018-03-03T01:18:00.962Z,95314.75
2018-03-03T01:20:29.268Z,95301.44
2018-03-03T01:22:57.590Z,95296.86
2018-03-03T01:25:26.729Z,95287.77
2018-03-03T01:27:55.257Z,95289.45
2018-03-03T01:30:23.557Z,95285.33
2018-03-03T01:32:51.884Z,95302.30
2018-03-03T01:35:20.359Z,95296.94
2018-03-03T01:37:48.658Z,95306.10
2018-03-03T01:40:17.023Z,95307.77
2018-03-03T01:42:45.324Z,95311.92
2018-03-03T01:45:13.710Z,95318.18
2018-03-03T01:47:42.068Z,95304.16
2018-03-03T01:50:10.473Z,95295.08
2018-03-03T01:52:41.506Z,95283.90
2018-03-03T01:55:11.556Z,95292.17
2018-03-03T01:57:39.938Z,95285.99
2018-03-03T02:00:08.246Z,95296.75
2018-03-03T02:02:36.658Z,95302.57
2018-03-03T02:05:05.740Z,95300.91
2018-03-03T02:07:34.795Z,95296.36
2018-03-03T02:10:03.208Z,95290.15
2018-03-03T02:12:31.528Z,95285.19
2018-03-03T02:15:01.644Z,95286.46
2018-03-03T02:17:30.031Z,95291.00
2018-03-03T02:19:59.955Z,95283.16
2018-03-03T02:22:28.339Z,95286.50
2018-03-03T02:24:56.846Z,95284.02
2018-03-03T02:27:25.342Z,95279.44
2018-03-03T02:29:56.782Z,95274.47
2018-03-03T02:32:25.392Z,95267.05
2018-03-03T02:34:53.766Z,95263.33
2018-03-03T02:37:22.224Z,95265.81
2018-03-03T02:39:50.601Z,95257.11
2018-03-03T02:42:22.319Z,95261.70
2018-03-03T02:44:51.416Z,95257.58
2018-03-03T02:47:19.778Z,95255.48
2018-03-03T02:49:48.275Z,95247.99
2018-03-03T02:52:16.757Z,95248.84
2018-03-03T02:54:45.115Z,95247.99
2018-03-03T02:57:13.411Z,95243.88
2018-03-03T02:59:42.047Z,95245.16
2018-03-03T03:02:11.120Z,95244.73
2018-03-03T03:04:39.466Z,95246.82
2018-03-03T03:07:07.786Z,95245.94
2018-03-03T03:09:36.063Z,95250.91
2018-03-03T03:12:04.399Z,95243.84
2018-03-03T03:14:32.715Z,95241.73
2018-03-03T03:17:01.805Z,95234.64
2018-03-03T03:19:30.125Z,95227.61
2018-03-03T03:21:58.482Z,95228.00
2018-03-03T03:24:29.785Z,95225.09
2018-03-03T03:26:58.140Z,95219.34
2018-03-03T03:29:26.493Z,95216.42
2018-03-03T03:31:57.516Z,95217.67
2018-03-03T03:34:25.897Z,95210.14
2018-03-03T03:36:54.200Z,95206.45
2018-03-03T03:39:23.275Z,95201.45
2018-03-03T03:41:51.601Z,95195.66
2018-03-03T03:44:22.082Z,95187.31
2018-03-03T03:46:52.815Z,95191.43
2018-03-03T03:49:22.113Z,95194.27
2018-03-03T03:51:50.590Z,95215.69
2018-03-03T03:54:19.817Z,95180.14
2018-03-03T03:56:49.019Z,95179.64
2018-03-03T03:59:18.417Z,95187.48
2018-03-03T04:01:46.751Z,95184.56
2018-03-03T04:04:15.167Z,95185.38
2018-03-03T04:06:44.531Z,95184.95
2018-03-03T04:09:12.841Z,95181.62
2018-03-03T04:11:41.196Z,95183.67
2018-03-03T04:14:12.289Z,95192.77
2018-03-03T04:16:42.483Z,95184.06
2018-03-03T04:19:11.757Z,95187.32
2018-03-03T04:21:41.782Z,95180.27
2018-03-03T04:24:10.153Z,95183.52
2018-03-03T04:26:40.214Z,95178.98
2018-03-03T04:29:10.426Z,95178.55
2018-03-03T04:31:40.409Z,95169.86
2018-03-03T04:34:08.741Z,95175.22
2018-03-03T04:36:39.531Z,95175.64
2018-03-03T04:39:09.749Z,95173.59
2018-03-03T04:41:40.747Z,95169.47
2018-03-03T04:44:09.221Z,95162.45
2018-03-03T04:46:37.493Z,95164.11
2018-03-03T04:49:05.975Z,95166.64
2018-03-03T04:51:36.752Z,95162.09
2018-03-03T04:54:06.806Z,95155.03
2018-03-03T04:56:36.891Z,95157.95
2018-03-03T05:13:15.548Z,95112.94
2018-03-03T05:15:44.459Z,95109.92
2018-03-03T05:21:33.075Z,95110.63
2018-03-03T05:24:06.976Z,95121.79
2018-03-03T05:26:42.845Z,95111.75
2018-03-03T05:32:50.574Z,95111.91
2018-03-03T05:38:31.395Z,95105.83
2018-03-03T05:44:14.321Z,95103.14
2018-03-03T05:46:47.934Z,95102.99
2018-03-03T05:49:23.630Z,95098.33
2018-03-03T05:52:03.805Z,95102.71
2018-03-03T05:54:38.117Z,95100.11
2018-03-03T06:00:17.258Z,95098.67
2018-03-03T06:03:00.430Z,95099.37
2018-03-03T06:05:33.173Z,95103.47
2018-03-03T06:21:47.338Z,95091.77
2018-03-03T06:24:15.887Z,95093.52
2018-03-03T06:26:44.199Z,95091.13
2018-03-03T06:29:12.871Z,95084.19
2018-03-03T06:31:42.172Z,95077.20
2018-03-03T06:34:10.527Z,95082.63
2018-03-03T06:36:41.580Z,95080.16
2018-03-03T06:39:09.958Z,95078.14
2018-03-03T06:41:39.293Z,95079.41
2018-03-03T06:44:07.628Z,95085.23
2018-03-03T06:46:36.004Z,95086.51
2018-03-03T06:49:04.384Z,95092.75
2018-03-03T06:51:32.700Z,95089.03
2018-03-03T06:54:01.860Z,95094.42
2018-03-03T06:56:30.442Z,95097.37
2018-03-03T06:59:00.570Z,95087.98
2018-03-03T07:01:29.148Z,95091.00
2018-03-03T07:03:57.838Z,95095.23
2018-03-03T07:06:26.944Z,95097.37
2018-03-03T07:08:55.497Z,95089.56
2018-03-03T07:11:23.863Z,95095.46
2018-03-03T07:13:52.180Z,95103.41
2018-03-03T07:16:20.539Z,95095.27
2018-03-03T07:18:50.652Z,95097.04
2018-03-03T07:21:18.996Z,95093.42
2018-03-03T07:23:48.099Z,95095.28
2018-03-03T07:26:16.401Z,95094.26
2018-03-03T07:28:44.740Z,95095.36
2018-03-03T07:31:13.065Z,95088.98
2018-03-03T07:33:41.405Z,95090.92
2018-03-03T07:36:10.485Z,95084.13
2018-03-03T07:38:40.549Z,95084.73
2018-03-03T07:41:09.128Z,95090.33
2018-03-03T07:43:37.458Z,95085.98
2018-03-03T07:46:06.000Z,95092.73
2018-03-03T07:48:38.472Z,95090.41
2018-03-03T07:51:08.718Z,95080.88
2018-03-03T07:53:37.068Z,95072.38
2018-03-03T07:56:05.450Z,95061.85
2018-03-03T07:58:45.408Z,95059.27
2018-03-03T08:01:14.880Z,95063.46
2018-03-03T08:03:43.307Z,95062.64
2018-03-03T08:06:13.384Z,95075.90
2018-03-03T08:08:42.464Z,95066.04
2018-03-03T08:11:10.771Z,95062.77
2018-03-03T08:13:39.166Z,95056.97
2018-03-03T08:16:10.914Z,95065.71
2018-03-03T08:18:39.320Z,95062.80
2018-03-03T08:21:09.405Z,95064.59
2018-03-03T08:23:37.859Z,95066.72
2018-03-03T08:26:06.245Z,95067.35
2018-03-03T08:28:36.816Z,95071.48
2018-03-03T08:31:05.281Z,95071.14
2018-03-03T08:33:34.483Z,95069.48
2018-03-03T08:36:04.895Z,95059.09
2018-03-03T08:38:35.551Z,95048.50
2018-03-03T08:41:04.099Z,95049.06
2018-03-03T08:43:32.759Z,95039.59
2018-03-03T08:46:03.748Z,95041.23
2018-03-03T08:48:32.124Z,95037.36
2018-03-03T08:51:00.544Z,95040.75
2018-03-03T08:53:29.839Z,95039.11
2018-03-03T08:55:58.219Z,95038.09
2018-03-03T08:58:26.535Z,95035.20
2018-03-03T09:00:54.885Z,95032.84
2018-03-03T09:03:23.315Z,95031.20
2018-03-03T09:05:51.786Z,95036.72
2018-03-03T09:08:22.316Z,95032.32
2018-03-03T09:10:52.993Z,95038.41
2018-03-03T09:13:21.335Z,95027.49
2018-03-03T09:15:49.711Z,95032.36
2018-03-03T09:18:18.850Z,95029.50
2018-03-03T09:20:47.210Z,95022.44
2018-03-03T09:23:15.659Z,95006.95
2018-03-03T09:25:46.211Z,95011.06
2018-03-03T09:28:14.574Z,95008.91
2018-03-03T09:30:42.897Z,95011.17
2018-03-03T09:33:11.513Z,95003.42
2018-03-03T09:35:43.367Z,95006.47
2018-03-03T09:38:14.811Z,95009.42
2018-03-03T09:40:44.210Z,95008.11
2018-03-03T09:43:14.356Z,95012.65
2018-03-03T09:45:42.898Z,95015.91
2018-03-03T09:48:11.425Z,95013.72
2018-03-03T09:50:41.535Z,95024.16
2018-03-03T09:53:11.154Z,95023.75
2018-03-03T09:55:39.482Z,95019.11
2018-03-03T09:58:07.865Z,95016.53
2018-03-03T10:00:36.206Z,95016.50
2018-03-03T10:03:06.613Z,95011.92
2018-03-03T10:05:39.952Z,95008.97
2018-03-03T10:08:10.245Z,95011.47
2018-03-03T10:10:38.726Z,95010.58
2018-03-03T10:13:08.678Z,95005.17
2018-03-03T10:15:37.107Z,95011.61
2018-03-03T10:18:07.641Z,95020.59
2018-03-03T10:20:41.119Z,95020.62
2018-03-03T10:23:09.551Z,95009.97
2018-03-03T10:25:40.518Z,95022.09
2018-03-03T10:28:09.637Z,95018.92
2018-03-03T10:30:38.969Z,95015.23
2018-03-03T10:33:07.473Z,95018.94
2018-03-03T10:35:35.941Z,95012.62
2018-03-03T10:38:05.658Z,95013.55
2018-03-03T10:40:35.460Z,95015.86
2018-03-03T10:43:06.555Z,95013.98
2018-03-03T10:45:37.995Z,95011.59
2018-03-03T10:48:07.474Z,95002.84
2018-03-03T10:50:39.919Z,94993.86
2018-03-03T10:53:08.424Z,94990.95
2018-03-03T10:55:36.975Z,94994.16
2018-03-03T10:58:06.031Z,94987.81
2018-03-03T11:00:37.866Z,94995.75
2018-03-03T11:03:06.312Z,94988.68
2018-03-03T11:05:35.602Z,94979.17
2018-03-03T11:08:05.664Z,94980.08
2018-03-03T11:10:34.065Z,94977.31
2018-03-03T11:13:02.414Z,94979.02
2018-03-03T11:15:30.813Z,94976.69
2018-03-03T11:17:59.950Z,94979.23
2018-03-03T11:20:28.244Z,94973.11
2018-03-03T11:22:56.613Z,94967.34
2018-03-03T11:25:26.685Z,94962.83
2018-03-03T11:27:55.839Z,94956.70
2018-03-03T11:30:24.230Z,94956.31
2018-03-03T11:32:55.230Z,94950.69
2018-03-03T11:35:23.531Z,94950.39
2018-03-03T11:37:51.893Z,94947.19
2018-03-03T11:40:20.267Z,94947.11
2018-03-03T11:42:50.489Z,94951.58
2018-03-03T11:45:19.910Z,94951.09
2018-03-03T11:47:50.072Z,94945.70
2018-03-03T11:50:18.534Z,94946.64
2018-03-03T11:52:46.844Z,94950.41
2018-03-03T11:55:17.117Z,94943.78
2018-03-03T11:57:48.000Z,94942.09
2018-03-03T12:00:16.350Z,94932.48
2018-03-03T12:02:45.416Z,94934.22
2018-03-03T12:05:13.828Z,94936.73
2018-03-03T12:07:42.392Z,94937.07
2018-03-03T12:10:10.717Z,94934.08
2018-03-03T12:12:39.092Z,94931.16
2018-03-03T12:15:07.469Z,94919.06
2018-03-03T12:17:36.875Z,94930.41
2018-03-03T12:20:05.219Z,94922.05
2018-03-03T12:22:33.570Z,94921.56
2018-03-03T12:25:04.493Z,94924.91
2018-03-03T12:27:33.665Z,94923.67
2018-03-03T12:30:01.992Z,94923.71
2018-03-03T12:32:30.438Z,94924.56
2018-03-03T12:34:59.040Z,94927.52
2018-03-03T12:37:27.382Z,94930.05
2018-03-03T12:39:55.712Z,94941.78
2018-03-03T12:42:24.009Z,94945.52
2018-03-03T12:44:52.394Z,94934.68
2018-03-03T12:47:20.716Z,94940.87
2018-03-03T12:49:49.147Z,94939.16
2018-03-03T12:52:17.607Z,94947.97
2018-03-03T12:54:45.961Z,94940.41
2018-03-03T12:57:14.351Z,94942.09
2018-03-03T12:59:42.679Z,94945.10
2018-03-03T13:02:11.002Z,94944.31
2018-03-03T13:04:39.620Z,94945.67
2018-03-03T13:07:08.099Z,94940.67
2018-03-03T13:09:36.438Z,94949.04
2018-03-03T13:12:09.012Z,94939.97
2018-03-03T13:14:37.386Z,94951.27
2018-03-03T13:17:05.791Z,94955.55
2018-03-03T13:19:34.254Z,94957.29
2018-03-03T13:22:02.607Z,94949.78
2018-03-03T13:24:30.939Z,94959.80
2018-03-03T13:26:59.244Z,94954.34
2018-03-03T13:29:27.596Z,94955.22
2018-03-03T13:31:55.977Z,94957.34
2018-03-03T13:34:24.336Z,94957.34
2018-03-03T13:36:55.431Z,94966.88
2018-03-03T13:39:23.763Z,94961.83
2018-03-03T13:41:52.082Z,94968.14
2018-03-03T13:44:21.292Z,94969.34
2018-03-03T13:46:49.726Z,94971.80
2018-03-03T13:49:20.749Z,94975.13
2018-03-03T13:51:49.208Z,94973.53
2018-03-03T13:54:18.311Z,94971.89
2018-03-03T13:56:46.764Z,94980.68
2018-03-03T13:59:15.122Z,94975.31
2018-03-03T14:01:43.510Z,94969.97
2018-03-03T14:04:11.910Z,94973.72
2018-03-03T14:06:42.721Z,94970.44
2018-03-03T14:09:15.608Z,94973.84
2018-03-03T14:11:47.143Z,94978.01
2018-03-03T14:14:15.545Z,94976.34
2018-03-03T14:16:45.797Z,94970.95
2018-03-03T14:19:19.475Z,94975.99
2018-03-03T14:21:49.926Z,94986.41
2018-03-03T14:24:18.238Z,94983.83
2018-03-03T14:26:46.609Z,94986.30
2018-03-03T14:29:14.987Z,94982.55
2018-03-03T14:31:45.248Z,94985.86
2018-03-03T14:34:15.919Z,94995.89
2018-03-03T14:36:44.299Z,94992.20
2018-03-03T14:39:12.773Z,94998.48
2018-03-03T14:41:41.183Z,94999.70
2018-03-03T14:44:09.535Z,95004.27
2018-03-03T14:46:37.978Z,95007.63
2018-03-03T14:49:08.911Z,95021.02
2018-03-03T14:51:39.306Z,95009.73
2018-03-03T14:54:11.716Z,95003.46
2018-03-03T14:56:41.804Z,94997.97
2018-03-03T14:59:10.217Z,94997.50
2018-03-03T15:01:38.528Z,95002.45
2018-03-03T15:04:08.551Z,95007.41
2018-03-03T15:06:36.927Z,95006.53
2018-03-03T15:09:05.273Z,95018.21
2018-03-03T15:11:35.341Z,95016.55
2018-03-03T15:14:06.445Z,95024.08
2018-03-03T15:16:36.722Z,95030.73
2018-03-03T15:19:06.882Z,95064.91
2018-03-03T15:21:35.219Z,95038.17
2018-03-03T15:24:05.243Z,95036.86
2018-03-03T15:26:33.633Z,95045.19
2018-03-03T15:29:02.013Z,95052.19
2018-03-03T15:31:30.355Z,95052.53
2018-03-03T15:34:00.523Z,95056.25
2018-03-03T15:36:30.615Z,95055.81
2018-03-03T15:39:01.883Z,95059.56
2018-03-03T15:41:30.396Z,95056.56
2018-03-03T15:44:00.534Z,95058.23
2018-03-03T15:46:28.949Z,95060.30
2018-03-03T15:48:57.313Z,95066.11
2018-03-03T15:51:28.448Z,95068.61
2018-03-03T15:53:56.801Z,95077.32
2018-03-03T15:56:25.152Z,95078.95
2018-03-03T15:58:55.172Z,95079.78
2018-03-03T16:01:24.836Z,95078.53
2018-03-03T16:03:54.916Z,95081.86
2018-03-03T16:06:24.334Z,95079.36
2018-03-03T16:08:53.459Z,95073.09
2018-03-03T16:11:21.917Z,95081.02
2018-03-03T16:13:50.240Z,95081.84
2018-03-03T16:16:18.754Z,95091.45
2018-03-03T16:18:47.037Z,95095.16
2018-03-03T16:21:15.478Z,95096.81
2018-03-03T16:23:44.561Z,95091.36
2018-03-03T16:26:12.862Z,95092.98
2018-03-03T16:28:41.268Z,95111.31
2018-03-03T16:31:11.677Z,95122.56
2018-03-03T16:33:42.263Z,95122.10
2018-03-03T16:38:44.783Z,95126.66
2018-03-03T16:41:14.996Z,95136.24
2018-03-03T16:43:44.301Z,95147.05
2018-03-03T16:46:13.652Z,95152.87
2018-03-03T16:48:44.110Z,95165.80
2018-03-03T16:51:12.884Z,95162.43
2018-03-03T16:53:41.257Z,95168.22
2018-03-03T16:56:09.714Z,95163.20
2018-03-03T16:58:40.170Z,95172.36
2018-03-03T17:01:10.878Z,95176.07
2018-03-03T17:03:39.192Z,95179.38
2018-03-03T17:06:08.239Z,95191.45
2018-03-03T17:08:36.624Z,95200.61
2018-03-03T17:11:04.903Z,95207.69
2018-03-03T17:13:33.346Z,95213.93
2018-03-03T17:16:03.780Z,95212.61
2018-03-03T17:18:32.431Z,95214.23
2018-03-03T17:21:00.794Z,95212.55
2018-03-03T17:23:29.117Z,95220.80
2018-03-03T17:25:57.472Z,95220.35
2018-03-03T17:28:25.831Z,95220.31
2018-03-03T17:30:54.215Z,95223.17
2018-03-03T17:33:22.588Z,95228.98
2018-03-03T17:35:51.000Z,95230.19
2018-03-03T17:38:19.359Z,95227.64
2018-03-03T17:40:49.493Z,95233.86
2018-03-03T17:43:17.863Z,95232.56
2018-03-03T17:45:49.815Z,95237.11
2018-03-03T17:48:21.100Z,95245.85
2018-03-03T17:50:49.481Z,95247.48
2018-03-03T17:53:17.934Z,95250.78
2018-03-03T17:55:46.416Z,95253.23
2018-03-03T17:58:15.182Z,95253.62
2018-03-03T18:00:43.676Z,95253.17
2018-03-03T18:03:12.345Z,95248.53
2018-03-03T18:05:40.805Z,95252.64
2018-03-03T18:08:09.253Z,95255.06
2018-03-03T18:10:38.110Z,95261.27
2018-03-03T18:13:09.102Z,95268.32
2018-03-03T18:15:37.650Z,95283.27
2018-03-03T18:18:06.098Z,95284.41
2018-03-03T18:20:36.745Z,95287.67
2018-03-03T18:23:07.686Z,95287.99
2018-03-03T18:25:37.036Z,95295.44
2018-03-03T18:28:06.133Z,95299.53
2018-03-03T18:30:40.384Z,95309.45
2018-03-03T18:33:09.553Z,95308.97
2018-03-03T18:35:40.134Z,95313.52
2018-03-03T18:38:11.055Z,95318.06
2018-03-03T18:40:40.236Z,95332.14
2018-03-03T18:43:09.531Z,95330.84
2018-03-03T18:45:38.948Z,95329.54
2018-03-03T18:48:09.199Z,95334.50
2018-03-03T18:50:40.116Z,95332.80
2018-03-03T18:53:09.309Z,95339.02
2018-03-03T18:55:37.671Z,95337.75
2018-03-03T18:58:06.761Z,95344.36
2018-03-03T19:00:37.104Z,95346.00
2018-03-03T19:03:10.687Z,95353.84
2018-03-03T19:05:41.203Z,95351.71
2018-03-03T19:08:10.540Z,95355.00
2018-03-03T19:10:39.020Z,95354.13
2018-03-03T19:13:07.706Z,95354.47
2018-03-03T19:15:36.168Z,95360.25
2018-03-03T19:18:05.317Z,95358.97
2018-03-03T19:20:34.496Z,95361.38
2018-03-03T19:23:02.912Z,95359.23
2018-03-03T19:25:32.162Z,95361.67
2018-03-03T19:28:00.543Z,95363.65
2018-03-03T19:30:29.753Z,95371.47
2018-03-03T19:33:00.696Z,95373.91
2018-03-03T19:35:30.589Z,95380.48
2018-03-03T19:37:59.690Z,95387.09
2018-03-03T19:40:28.107Z,95386.17
2018-03-03T19:42:56.787Z,95374.86
2018-03-03T19:45:27.409Z,95386.02
2018-03-03T19:47:55.898Z,95384.71
2018-03-03T19:50:24.493Z,95383.86
2018-03-03T19:52:53.785Z,95384.16
2018-03-03T19:55:22.506Z,95387.02
2018-03-03T19:57:50.996Z,95392.34
2018-03-03T20:00:20.260Z,95392.73
2018-03-03T20:02:54.647Z,95401.04
2018-03-03T20:05:23.135Z,95400.19
2018-03-03T20:07:52.501Z,95406.81
2018-03-03T20:10:23.061Z,95402.16
2018-03-03T20:12:53.909Z,95399.99
2018-03-03T20:15:22.472Z,95409.05
2018-03-03T20:17:53.617Z,95410.20
2018-03-03T20:20:23.797Z,95411.77
2018-03-03T20:22:52.249Z,95410.03
2018-03-03T20:25:20.667Z,95407.09
2018-03-03T20:27:49.077Z,95406.59
2018-03-03T20:30:17.798Z,95406.13
2018-03-03T20:32:46.453Z,95408.98
2018-03-03T20:35:15.655Z,95407.70
2018-03-03T20:37:44.096Z,95414.33
2018-03-03T20:40:12.701Z,95421.77
2018-03-03T20:42:44.351Z,95442.49
2018-03-03T20:45:13.571Z,95421.77
2018-03-03T20:47:42.062Z,95421.34
2018-03-03T20:50:12.471Z,95422.59
2018-03-03T20:52:41.669Z,95415.51
2018-03-03T20:55:13.345Z,95418.82
2018-03-03T20:57:44.394Z,95429.64
2018-03-03T21:00:12.817Z,95428.00
2018-03-03T21:02:41.309Z,95420.92
2018-03-03T21:05:10.633Z,95420.95
2018-03-03T21:07:39.041Z,95423.05
2018-03-03T21:10:09.177Z,95421.38
2018-03-03T21:12:43.354Z,95423.94
2018-03-03T21:15:11.584Z,95428.53
2018-03-03T21:17:39.973Z,95429.84
2018-03-03T21:20:08.290Z,95435.25
2018-03-03T21:22:36.668Z,95436.11
2018-03-03T21:25:05.912Z,95442.37
2018-03-03T21:27:35.962Z,95444.90
2018-03-03T21:30:06.095Z,95451.13
2018-03-03T21:32:35.546Z,95444.05
2018-03-03T21:35:04.644Z,95447.78
2018-03-03T21:37:33.130Z,95448.67
2018-03-03T21:40:01.439Z,95456.58
2018-03-03T21:42:29.945Z,95461.56
2018-03-03T21:44:58.415Z,95465.34
2018-03-03T21:47:27.474Z,95467.44
2018-03-03T21:49:57.569Z,95463.27
2018-03-03T21:52:27.561Z,95467.83
2018-03-03T21:54:55.989Z,95466.61
2018-03-03T21:57:25.205Z,95467.47
2018-03-03T21:59:53.601Z,95472.48
2018-03-03T22:02:21.982Z,95480.50
2018-03-03T22:04:51.897Z,95476.43
2018-03-03T22:07:20.333Z,95482.38
2018-03-03T22:09:50.443Z,95482.47
2018-03-03T22:12:19.889Z,95484.64
2018-03-03T22:14:48.256Z,95487.23
2018-03-03T22:17:18.354Z,95485.98
2018-03-03T22:19:47.491Z,95484.34
2018-03-03T22:22:16.025Z,95489.00
2018-03-03T22:24:46.041Z,95486.94
2018-03-03T22:27:14.428Z,95487.82
2018-03-03T22:29:42.832Z,95485.75
2018-03-03T22:32:11.953Z,95490.31
2018-03-03T22:34:40.415Z,95491.59
2018-03-03T22:37:08.858Z,95490.34
2018-03-03T22:39:37.202Z,95494.52
2018-03-03T22:42:08.299Z,95496.22
2018-03-03T22:44:36.841Z,95502.49
2018-03-03T22:47:05.195Z,95500.42
2018-03-03T22:49:33.502Z,95507.52
2018-03-03T22:52:02.703Z,95504.16
2018-03-03T22:54:31.018Z,95499.21
2018-03-03T22:56:59.463Z,95500.85
2018-03-03T22:59:29.522Z,95502.09
2018-03-03T23:02:00.628Z,95505.02
2018-03-03T23:04:29.819Z,95505.88
2018-03-03T23:07:00.318Z,95508.37
2018-03-03T23:09:30.370Z,95502.95
2018-03-03T23:11:59.472Z,95504.27
2018-03-03T23:14:28.498Z,95505.55
2018-03-03T23:16:56.839Z,95505.12
2018-03-03T23:19:26.898Z,95511.78
2018-03-03T23:21:55.298Z,95513.45
2018-03-03T23:24:24.647Z,95507.22
2018-03-03T23:26:52.967Z,95512.24
2018-03-03T23:29:24.036Z,95512.67
2018-03-03T23:31:54.270Z,95512.67
2018-03-03T23:34:22.758Z,95515.62
2018-03-03T23:36:51.068Z,95515.62
2018-03-03T23:39:19.548Z,95514.77
2018-03-03T23:41:48.651Z,95514.77
2018-03-03T23:44:18.746Z,95520.97
2018-03-03T23:46:47.169Z,95523.47
2018-03-03T23:49:15.944Z,95521.76
2018-03-03T23:51:45.041Z,95525.86
2018-03-03T23:54:13.371Z,95527.50
2018-03-03T23:56:44.461Z,95532.06
2018-03-03T23:59:12.936Z,95527.04
